createdAt,value
2023-04-27T00:02:16.692Z,8.67
2023-04-27T00:04:45.156Z,8.61
2023-04-27T00:07:12.437Z,8.59
2023-04-27T00:09:39.512Z,8.63
2023-04-27T00:12:07.195Z,8.67
2023-04-27T00:14:34.288Z,8.72
2023-04-27T00:17:01.228Z,8.76
2023-04-27T00:19:28.556Z,8.77
2023-04-27T00:21:55.711Z,8.80
2023-04-27T00:24:22.518Z,8.83
2023-04-27T00:26:49.438Z,8.80
2023-04-27T00:29:16.737Z,8.77
2023-04-27T00:31:43.847Z,8.77
2023-04-27T00:34:10.976Z,8.68
2023-04-27T00:36:38.026Z,8.46
2023-04-27T00:39:06.635Z,8.26
2023-04-27T00:41:33.619Z,8.25
2023-04-27T00:44:00.675Z,8.32
2023-04-27T00:46:28.214Z,8.39
2023-04-27T00:48:56.228Z,8.46
2023-04-27T00:51:27.896Z,8.52
2023-04-27T00:53:55.929Z,8.62
2023-04-27T00:56:22.896Z,8.68
2023-04-27T00:59:05.713Z,8.71
2023-04-27T01:08:15.205Z,8.54
2023-04-27T01:10:42.437Z,8.51
2023-04-27T01:13:10.415Z,8.46
2023-04-27T01:15:38.011Z,8.40
2023-04-27T01:18:09.085Z,8.36
2023-04-27T01:20:38.039Z,8.31
2023-04-27T01:23:05.128Z,8.26
2023-04-27T01:25:33.091Z,8.23
2023-04-27T01:28:02.304Z,8.18
2023-04-27T01:30:30.486Z,8.15
2023-04-27T01:32:58.823Z,8.16
2023-04-27T01:35:28.109Z,8.14
2023-04-27T01:37:56.693Z,8.01
2023-04-27T01:40:23.390Z,7.91
2023-04-27T01:42:50.122Z,7.83
2023-04-27T01:45:16.969Z,7.77
2023-04-27T01:47:43.765Z,7.83
2023-04-27T01:50:11.264Z,7.86
2023-04-27T01:52:39.463Z,7.81
2023-04-27T01:55:06.689Z,7.77
2023-04-27T01:57:33.535Z,7.79
2023-04-27T02:00:01.094Z,7.85
2023-04-27T02:02:28.669Z,7.93
2023-04-27T02:04:55.600Z,7.97
2023-04-27T02:07:22.424Z,7.85
2023-04-27T02:09:49.880Z,7.65
2023-04-27T02:12:16.722Z,7.48
2023-04-27T02:14:43.683Z,7.39
2023-04-27T02:17:10.524Z,7.46
2023-04-27T02:19:37.318Z,7.57
2023-04-27T02:22:05.517Z,7.67
2023-04-27T02:24:32.383Z,7.74
2023-04-27T02:27:01.207Z,7.79
2023-04-27T02:29:31.033Z,7.84
2023-04-27T02:31:58.376Z,7.94
2023-04-27T02:34:25.232Z,7.98
2023-04-27T02:36:51.938Z,8.00
2023-04-27T02:39:18.572Z,7.94
2023-04-27T02:41:45.246Z,7.94
2023-04-27T02:44:11.875Z,7.95
2023-04-27T02:46:38.623Z,7.94
2023-04-27T02:49:05.515Z,7.91
2023-04-27T02:51:32.321Z,7.83
2023-04-27T02:53:59.001Z,7.83
2023-04-27T02:56:27.178Z,7.89
2023-04-27T02:58:53.995Z,7.94
2023-04-27T03:01:20.757Z,7.97
2023-04-27T03:03:47.738Z,7.95
2023-04-27T03:06:14.749Z,7.91
2023-04-27T03:08:41.655Z,7.85
2023-04-27T03:11:11.931Z,7.87
2023-04-27T03:13:42.021Z,7.88
2023-04-27T03:16:10.748Z,7.87
2023-04-27T03:18:38.756Z,7.76
2023-04-27T03:21:09.034Z,7.58
2023-04-27T03:23:36.250Z,7.45
2023-04-27T03:26:11.389Z,7.40
2023-04-27T03:28:38.221Z,7.32
2023-04-27T03:31:09.015Z,7.25
2023-04-27T03:33:36.108Z,7.28
2023-04-27T03:36:03.881Z,7.35
2023-04-27T03:38:30.864Z,7.41
2023-04-27T03:40:57.770Z,7.47
2023-04-27T03:43:25.112Z,7.50
2023-04-27T03:45:52.088Z,7.51
2023-04-27T03:48:19.171Z,7.54
2023-04-27T03:50:46.919Z,7.56
2023-04-27T03:53:13.856Z,7.61
2023-04-27T03:55:41.680Z,7.67
2023-04-27T03:58:12.025Z,7.72
2023-04-27T04:00:47.857Z,7.72
2023-04-27T04:03:16.542Z,7.62
2023-04-27T04:05:46.466Z,7.62
2023-04-27T04:08:13.571Z,7.64
2023-04-27T04:10:40.338Z,7.67
2023-04-27T04:13:07.082Z,7.66
2023-04-27T04:15:33.984Z,7.65
2023-04-27T04:18:00.971Z,7.66
2023-04-27T04:20:30.155Z,7.62
2023-04-27T04:22:57.122Z,7.51
2023-04-27T04:25:27.026Z,7.36
2023-04-27T04:27:55.747Z,7.30
2023-04-27T04:30:22.920Z,7.20
2023-04-27T04:32:49.727Z,7.17
2023-04-27T04:35:19.299Z,7.20
2023-04-27T04:37:46.237Z,7.23
2023-04-27T04:40:13.394Z,7.22
2023-04-27T04:42:40.065Z,7.22
2023-04-27T04:45:08.085Z,7.29
2023-04-27T04:47:36.004Z,7.32
2023-04-27T04:50:03.438Z,7.34
2023-04-27T04:52:30.688Z,7.41
2023-04-27T04:54:57.376Z,7.51
2023-04-27T04:57:23.917Z,7.59
2023-04-27T04:59:50.592Z,7.66
2023-04-27T05:02:17.977Z,7.65
2023-04-27T05:04:45.016Z,7.56
2023-04-27T05:07:14.772Z,7.46
2023-04-27T05:09:41.890Z,7.37
2023-04-27T05:12:09.547Z,7.32
2023-04-27T05:14:36.411Z,7.26
2023-04-27T05:17:04.013Z,7.25
2023-04-27T05:19:35.094Z,7.36
2023-04-27T05:22:10.855Z,7.47
2023-04-27T05:24:37.865Z,7.42
2023-04-27T05:27:04.949Z,7.31
2023-04-27T05:29:32.493Z,7.27
2023-04-27T05:32:02.554Z,7.18
2023-04-27T05:34:30.191Z,7.10
2023-04-27T05:37:06.498Z,7.07
2023-04-27T05:39:36.493Z,7.10
2023-04-27T05:42:11.017Z,7.19
2023-04-27T05:44:43.954Z,7.25
2023-04-27T05:47:12.960Z,7.24
2023-04-27T05:49:46.727Z,7.32
2023-04-27T05:52:18.014Z,7.39
2023-04-27T05:54:52.019Z,7.46
2023-04-27T05:57:35.372Z,7.44
2023-04-27T06:00:16.520Z,7.46
2023-04-27T06:02:46.436Z,7.50
2023-04-27T06:05:15.968Z,7.52
2023-04-27T06:07:48.788Z,7.58
2023-04-27T06:10:25.584Z,7.70
2023-04-27T06:12:55.980Z,7.79
2023-04-27T06:15:24.624Z,7.87
2023-04-27T06:18:24.629Z,7.93
2023-04-27T06:20:52.114Z,7.91
2023-04-27T06:23:18.804Z,7.86
2023-04-27T06:25:45.644Z,7.86
2023-04-27T06:28:16.160Z,7.92
2023-04-27T06:30:44.489Z,7.87
2023-04-27T06:33:15.418Z,7.78
2023-04-27T06:36:15.929Z,7.80
2023-04-27T06:38:46.488Z,7.85
2023-04-27T06:41:32.470Z,7.86
2023-04-27T06:44:03.661Z,7.87
2023-04-27T06:46:35.030Z,7.90
2023-04-27T06:49:05.817Z,7.99
2023-04-27T06:51:35.210Z,8.11
2023-04-27T06:54:08.018Z,8.25
2023-04-27T06:56:40.533Z,8.28
2023-04-27T06:59:09.137Z,8.13
2023-04-27T07:02:00.504Z,7.98
2023-04-27T07:04:42.793Z,7.88
2023-04-27T07:07:17.534Z,7.80
2023-04-27T07:09:53.532Z,7.76
2023-04-27T07:12:23.381Z,7.70
2023-04-27T07:14:52.321Z,7.67
2023-04-27T07:17:22.763Z,7.77
2023-04-27T07:19:54.434Z,7.90
2023-04-27T07:26:03.345Z,8.04
2023-04-27T07:28:47.565Z,8.13
2023-04-27T07:31:44.204Z,8.26
2023-04-27T07:34:37.925Z,8.34
